Peace — WBF3649 — position and weather

sailwx.info

Track history (hours):
 
Tides and Currents Weather Stations Pressure Air Temp Water Temp Dewpoint Dewpoint Depression Visibility Wind Speed Wind Dir Waves Ship Positions

Peace

Owner: BOWMAN, ERIC L, VENTURA, CA. More information available from US FCC via Universal Licensing System and Coast Guard Vessel Documentation Center.

Last reported at 2018-Feb-25 08:00 UTC. Time now 2018-Feb-25 08:13 UTC.
Position N 34°15' W 119°16'.

Length 20 m.

Type: Diving. MMSI: 367166830.

Date/timePositionNaut miles runAvg speedWind from/ knotsBaromVisibWave heightAir tempDewpointWater temp
2018-Feb-25 08:00N 34°15' W 119°16'0 0.0
2018-Feb-25 07:30N 34°15' W 119°16'0 0.0
2018-Feb-25 06:57N 34°15' W 119°16'0 0.0
2018-Feb-25 06:30N 34°15' W 119°16'0 0.0
2018-Feb-25 06:00N 34°15' W 119°16'0 0.0
2018-Feb-25 05:30N 34°15' W 119°16'0 0.0
2018-Feb-25 05:00N 34°15' W 119°16'0 0.0
2018-Feb-25 04:27N 34°15' W 119°16'0 0.0
2018-Feb-25 04:00N 34°15' W 119°16'0 0.0
2018-Feb-25 03:27N 34°15' W 119°16'0 0.0
2018-Feb-25 03:00N 34°15' W 119°16'0 0.0
2018-Feb-25 02:30N 34°15' W 119°16'0 0.0
2018-Feb-25 02:00N 34°15' W 119°16'1 1.1
2018-Feb-25 01:30N 34°15' W 119°17'5 9.1
2018-Feb-25 00:59N 34°12' W 119°21'6 9.3
2018-Feb-25 00:22N 34°07' W 119°26'6 9.4
2018-Feb-24 23:45N 34°03' W 119°30'2 0.2
2018-Feb-24 17:05N 34°02' W 119°31'1 9.4
2018-Feb-24 17:00N 34°02' W 119°30'5 9.2
2018-Feb-24 16:30N 34°06' W 119°27'5 9.2
2018-Feb-24 15:59N 34°09' W 119°23'5 9.5
2018-Feb-24 15:28N 34°13' W 119°19'3 6.0
2018-Feb-24 14:58N 34°15' W 119°16'0 0.0
2018-Feb-24 14:28N 34°15' W 119°16'0 0.0
2018-Feb-24 13:58N 34°15' W 119°16'0 0.0
2018-Feb-24 13:25N 34°15' W 119°16'0 0.0
2018-Feb-24 12:58N 34°15' W 119°16'0 0.0
2018-Feb-24 12:28N 34°15' W 119°16'0 0.0
2018-Feb-24 11:55N 34°15' W 119°16'0 0.0
2018-Feb-24 11:28N 34°15' W 119°16'0 0.0
2018-Feb-24 10:58N 34°15' W 119°16'0 0.0
2018-Feb-24 10:28N 34°15' W 119°16'0 0.0
2018-Feb-24 09:58N 34°15' W 119°16'0 0.0
2018-Feb-24 09:28N 34°15' W 119°16'0 0.0
2018-Feb-24 08:58N 34°15' W 119°16'0 0.0
2018-Feb-24 08:28N 34°15' W 119°16'0 0.0
2018-Feb-24 07:55N 34°15' W 119°16'0 0.0
2018-Feb-24 07:28N 34°15' W 119°16'0 0.0
2018-Feb-24 06:58N 34°15' W 119°16'0 0.0
2018-Feb-24 06:28N 34°15' W 119°16'0 0.0
2018-Feb-24 05:55N 34°15' W 119°16'0 0.0
2018-Feb-24 05:28N 34°15' W 119°16'0 0.0
2018-Feb-24 04:58N 34°15' W 119°16'0 0.0
2018-Feb-24 04:28N 34°15' W 119°16'0 0.0
2018-Feb-24 03:58N 34°15' W 119°16'0 0.0
2018-Feb-24 03:28N 34°15' W 119°16'0 0.0
2018-Feb-24 02:55N 34°15' W 119°16'0 0.0
2018-Feb-24 02:28N 34°15' W 119°16'0 0.0
2018-Feb-24 01:46N 34°15' W 119°16'0 0.0
2018-Feb-24 01:22N 34°15' W 119°16'0 0.0
2018-Feb-24 00:58N 34°15' W 119°16'0 0.0
2018-Feb-24 00:28N 34°15' W 119°16'0 0.0
2018-Feb-23 23:58N 34°15' W 119°16'0 0.0
2018-Feb-23 23:28N 34°15' W 119°16'0 0.0
2018-Feb-23 22:58N 34°15' W 119°16'0 0.0
2018-Feb-23 22:28N 34°15' W 119°16'0 0.0
2018-Feb-23 21:58N 34°15' W 119°16'0 0.0
2018-Feb-23 21:28N 34°15' W 119°16'0 0.0
2018-Feb-23 20:55N 34°15' W 119°16'0 0.0
2018-Feb-23 20:22N 34°15' W 119°16'0 0.0
2018-Feb-23 19:52N 34°15' W 119°16'0 0.0
2018-Feb-23 19:28N 34°15' W 119°16'0 0.0
2018-Feb-23 18:55N 34°15' W 119°16'0 0.0
2018-Feb-23 18:28N 34°15' W 119°16'0 0.0
2018-Feb-23 17:58N 34°15' W 119°16'0 0.0
2018-Feb-23 17:25N 34°15' W 119°16'0 0.0
2018-Feb-23 16:58N 34°15' W 119°16'0 0.0
2018-Feb-23 16:25N 34°15' W 119°16'0 0.0
2018-Feb-23 15:58N 34°15' W 119°16'0 0.0
2018-Feb-23 15:22N 34°15' W 119°16'0 0.0
2018-Feb-23 14:58N 34°15' W 119°16'0 0.0
2018-Feb-23 14:28N 34°15' W 119°16'0 0.0
2018-Feb-23 13:58N 34°15' W 119°16'0 0.0
2018-Feb-23 13:28N 34°15' W 119°16'0 0.0
2018-Feb-23 12:58N 34°15' W 119°16'0 0.0
2018-Feb-23 12:28N 34°15' W 119°16'0 0.0
2018-Feb-23 11:58N 34°15' W 119°16'0 0.0
2018-Feb-23 11:28N 34°15' W 119°16'0 0.0
2018-Feb-23 10:58N 34°15' W 119°16'0 0.0
2018-Feb-23 10:25N 34°15' W 119°16'0 0.0
2018-Feb-23 09:58N 34°15' W 119°16'0 0.0
2018-Feb-23 09:28N 34°15' W 119°16'0 0.0
2018-Feb-23 08:58N 34°15' W 119°16'0 0.0
2018-Feb-23 08:25N 34°15' W 119°16'0 0.0
2018-Feb-23 07:58N 34°15' W 119°16'0 0.0
2018-Feb-23 07:28N 34°15' W 119°16'0 0.0
2018-Feb-23 06:55N 34°15' W 119°16'0 0.0
2018-Feb-23 06:28N 34°15' W 119°16'0 0.0
2018-Feb-23 05:58N 34°15' W 119°16'0 0.0
2018-Feb-23 05:25N 34°15' W 119°16'0 0.0
2018-Feb-23 04:58N 34°15' W 119°16'0 0.0
2018-Feb-23 04:28N 34°15' W 119°16'0 0.0
2018-Feb-23 03:58N 34°15' W 119°16'0 0.0
2018-Feb-23 03:28N 34°15' W 119°16'0 0.0
2018-Feb-23 02:58N 34°15' W 119°16'0 0.0
2018-Feb-23 02:28N 34°15' W 119°16'0 0.0
2018-Feb-23 01:58N 34°15' W 119°16'0 0.0
2018-Feb-23 01:22N 34°15' W 119°16'0 0.0
2018-Feb-23 00:58N 34°15' W 119°16'0 0.0
2018-Feb-23 00:28N 34°15' W 119°16'0 0.0
2018-Feb-22 23:58N 34°15' W 119°16'0 0.0
2018-Feb-22 23:28N 34°15' W 119°16'0 0.0
2018-Feb-22 22:58N 34°15' W 119°16'0 0.0
2018-Feb-22 22:28N 34°15' W 119°16'0 0.0
2018-Feb-22 21:58N 34°15' W 119°16'0 0.0
2018-Feb-22 21:28N 34°15' W 119°16'0 0.0
2018-Feb-22 20:55N 34°15' W 119°16'0 0.0
2018-Feb-22 20:28N 34°15' W 119°16'0 0.0
2018-Feb-22 19:58N 34°15' W 119°16'0 0.0
2018-Feb-22 19:28N 34°15' W 119°16'0 0.0
2018-Feb-22 18:58N 34°15' W 119°16'0 0.0
2018-Feb-22 18:28N 34°15' W 119°16'0 0.0
2018-Feb-22 17:58N 34°15' W 119°16'0 0.0
2018-Feb-22 17:28N 34°15' W 119°16'0 0.0
2018-Feb-22 16:58N 34°15' W 119°16'0 0.0
2018-Feb-22 16:28N 34°15' W 119°16'0 0.0
2018-Feb-22 15:55N 34°15' W 119°16'0 0.0
2018-Feb-22 15:28N 34°15' W 119°16'0 0.0
2018-Feb-22 14:58N 34°15' W 119°16'0 0.0
2018-Feb-22 14:28N 34°15' W 119°16'0 0.0
2018-Feb-22 13:58N 34°15' W 119°16'0 0.0
2018-Feb-22 13:25N 34°15' W 119°16'0 0.0
2018-Feb-22 12:58N 34°15' W 119°16'0 0.0
2018-Feb-22 12:28N 34°15' W 119°16'0 0.0
2018-Feb-22 11:58N 34°15' W 119°16'0 0.0
2018-Feb-22 11:28N 34°15' W 119°16'0 0.0
2018-Feb-22 10:58N 34°15' W 119°16'0 0.0
2018-Feb-22 10:28N 34°15' W 119°16'0 0.0
2018-Feb-22 09:58N 34°15' W 119°16'0 0.0
2018-Feb-22 09:28N 34°15' W 119°16'0 0.0
2018-Feb-22 08:58N 34°15' W 119°16'0 0.0
2018-Feb-22 08:28N 34°15' W 119°16'0 0.0
2018-Feb-22 07:58N 34°15' W 119°16'0 0.0
2018-Feb-22 07:28N 34°15' W 119°16'0 0.0
2018-Feb-22 06:58N 34°15' W 119°16'0 0.0
2018-Feb-22 06:28N 34°15' W 119°16'0 0.0
2018-Feb-22 05:58N 34°15' W 119°16'0 0.0
2018-Feb-22 05:28N 34°15' W 119°16'0 0.0
2018-Feb-22 04:58N 34°15' W 119°16'0 0.0
2018-Feb-22 04:28N 34°15' W 119°16'0 0.0
2018-Feb-22 03:58N 34°15' W 119°16'0 0.0
2018-Feb-22 03:19N 34°15' W 119°16'0 0.0
2018-Feb-22 02:58N 34°15' W 119°16'0 0.0
2018-Feb-22 02:28N 34°15' W 119°16'0 0.0
2018-Feb-22 01:58N 34°15' W 119°16'0 0.0
2018-Feb-22 01:28N 34°15' W 119°16'0 0.0
2018-Feb-22 00:58N 34°15' W 119°16'0 0.0
2018-Feb-22 00:25N 34°15' W 119°16'0 0.0
2018-Feb-21 23:52N 34°15' W 119°16'0 0.0
2018-Feb-21 23:28N 34°15' W 119°16'0 0.0
2018-Feb-21 22:58N 34°15' W 119°16'0 0.0
2018-Feb-21 22:28N 34°15' W 119°16'0 0.0
2018-Feb-21 21:58N 34°15' W 119°16'0 0.0
2018-Feb-21 21:25N 34°15' W 119°16'0 0.0
2018-Feb-21 20:58N 34°15' W 119°16'0 0.0
2018-Feb-21 20:25N 34°15' W 119°16'0 0.0
2018-Feb-21 19:55N 34°15' W 119°16'0 0.0
2018-Feb-21 19:28N 34°15' W 119°16'0 0.0
2018-Feb-21 18:58N 34°15' W 119°16'0 0.0
2018-Feb-21 18:28N 34°15' W 119°16'0 0.0
2018-Feb-21 17:58N 34°15' W 119°16'0 0.0
2018-Feb-21 17:28N 34°15' W 119°16'0 0.0
2018-Feb-21 16:58N 34°15' W 119°16'0 0.0
2018-Feb-21 16:28N 34°15' W 119°16'0 0.0
2018-Feb-21 15:58N 34°15' W 119°16'0 0.0
2018-Feb-21 15:28N 34°15' W 119°16'0 0.0
2018-Feb-21 14:58N 34°15' W 119°16'0 0.0
2018-Feb-21 14:28N 34°15' W 119°16'0 0.0
2018-Feb-21 13:58N 34°15' W 119°16'0 0.0
2018-Feb-21 13:25N 34°15' W 119°16'0 0.0
2018-Feb-21 12:58N 34°15' W 119°16'0 0.0
2018-Feb-21 12:28N 34°15' W 119°16'0 0.0
2018-Feb-21 11:58N 34°15' W 119°16'0 0.0
2018-Feb-21 11:25N 34°15' W 119°16'0 0.0
2018-Feb-21 10:58N 34°15' W 119°16'0 0.0
2018-Feb-21 10:28N 34°15' W 119°16'0 0.0
2018-Feb-21 09:58N 34°15' W 119°16'0 0.0
2018-Feb-21 09:28N 34°15' W 119°16'0 0.0
2018-Feb-21 08:58N 34°15' W 119°16'0 0.0
2018-Feb-21 08:28N 34°15' W 119°16'0 0.0
2018-Feb-21 07:55N 34°15' W 119°16'0 0.0
2018-Feb-21 07:28N 34°15' W 119°16'0 0.0
2018-Feb-21 06:58N 34°15' W 119°16'0 0.0
2018-Feb-21 06:25N 34°15' W 119°16'0 0.0
2018-Feb-21 05:58N 34°15' W 119°16'0 0.0
2018-Feb-21 05:28N 34°15' W 119°16'0 0.0
2018-Feb-21 04:52N 34°15' W 119°16'0 0.0
2018-Feb-21 04:28N 34°15' W 119°16'0 0.0
2018-Feb-21 03:58N 34°15' W 119°16'0 0.0
2018-Feb-21 03:28N 34°15' W 119°16'0 0.0
2018-Feb-21 02:58N 34°15' W 119°16'0 0.0
2018-Feb-21 02:28N 34°15' W 119°16'0 0.0
2018-Feb-21 01:55N 34°15' W 119°16'0 0.0
2018-Feb-21 01:22N 34°15' W 119°16'0 0.0
2018-Feb-21 00:55N 34°15' W 119°16'0 0.0
2018-Feb-21 00:28N 34°15' W 119°16'0 0.0
2018-Feb-20 23:58N 34°15' W 119°16'0 0.0
2018-Feb-20 23:28N 34°15' W 119°16'0 0.0
2018-Feb-20 22:58N 34°15' W 119°16'0 0.0
2018-Feb-20 22:28N 34°15' W 119°16'0 0.0
2018-Feb-20 21:58N 34°15' W 119°16'0 0.0
2018-Feb-20 21:28N 34°15' W 119°16'0 0.0
2018-Feb-20 20:58N 34°15' W 119°16'0 0.0
2018-Feb-20 20:25N 34°15' W 119°16'0 0.0
2018-Feb-20 19:58N 34°15' W 119°16'0 0.0
2018-Feb-20 19:28N 34°15' W 119°16'0 0.0
2018-Feb-20 18:55N 34°15' W 119°16'0 0.0
2018-Feb-20 18:28N 34°15' W 119°16'0 0.0
2018-Feb-20 17:58N 34°15' W 119°16'0 0.0
2018-Feb-20 17:28N 34°15' W 119°16'0 0.0
2018-Feb-20 16:58N 34°15' W 119°16'0 0.0
2018-Feb-20 16:28N 34°15' W 119°16'0 0.0
2018-Feb-20 15:58N 34°15' W 119°16'0 0.0
2018-Feb-20 15:28N 34°15' W 119°16'0 0.0
2018-Feb-20 14:58N 34°15' W 119°16'0 0.0
2018-Feb-20 14:28N 34°15' W 119°16'0 0.0
2018-Feb-20 13:58N 34°15' W 119°16'0 0.0
2018-Feb-20 13:28N 34°15' W 119°16'0 0.0
2018-Feb-20 12:58N 34°15' W 119°16'0 0.0
2018-Feb-20 12:28N 34°15' W 119°16'0 0.0
2018-Feb-20 11:49N 34°15' W 119°16'0 0.0
2018-Feb-20 11:28N 34°15' W 119°16'0 0.0
2018-Feb-20 10:58N 34°15' W 119°16'0 0.0
2018-Feb-20 10:28N 34°15' W 119°16'0 0.0
2018-Feb-20 09:58N 34°15' W 119°16'0 0.0
2018-Feb-20 09:28N 34°15' W 119°16'0 0.0
2018-Feb-20 08:55N 34°15' W 119°16'0 0.0
2018-Feb-20 08:28N 34°15' W 119°16'0 0.0
2018-Feb-20 07:58N 34°15' W 119°16'0 0.0
2018-Feb-20 07:28N 34°15' W 119°16'0 0.0
2018-Feb-20 06:58N 34°15' W 119°16'0 0.0
2018-Feb-20 06:28N 34°15' W 119°16'0 0.0
2018-Feb-20 05:58N 34°15' W 119°16'0 0.0
2018-Feb-20 05:28N 34°15' W 119°16'0 0.0
2018-Feb-20 04:55N 34°15' W 119°16'0 0.0
2018-Feb-20 04:28N 34°15' W 119°16'0 0.0
2018-Feb-20 03:58N 34°15' W 119°16'0 0.0
2018-Feb-20 03:25N 34°15' W 119°16'0 0.0
2018-Feb-20 02:58N 34°15' W 119°16'0 0.0
2018-Feb-20 02:25N 34°15' W 119°16'0 0.0
2018-Feb-20 01:58N 34°15' W 119°16'0 0.0
2018-Feb-20 01:28N 34°15' W 119°16'0 0.0
2018-Feb-20 00:52N 34°15' W 119°16'0 0.0
2018-Feb-20 00:28N 34°15' W 119°16'0 0.0
2018-Feb-19 23:55N 34°15' W 119°16'0 0.0
2018-Feb-19 23:28N 34°15' W 119°16'0 0.2
2018-Feb-19 22:59N 34°15' W 119°16'4 8.0
2018-Feb-19 22:30N 34°13' W 119°20'5 9.4
2018-Feb-19 22:00N 34°10' W 119°24'6 9.5
2018-Feb-19 21:21N 34°05' W 119°29'3 9.3
2018-Feb-19 20:59N 34°02' W 119°31'3 0.1
2018-Feb-18 22:20N 33°60' W 119°31'3 8.5
2018-Feb-18 22:00N 34°00' W 119°28'1 2.3
2018-Feb-18 21:29N 34°00' W 119°26'0 0.0
2018-Feb-18 20:32N 34°00' W 119°26'0 1.2
2018-Feb-18 20:29N 34°00' W 119°26'1 1.3
2018-Feb-18 19:53N 34°01' W 119°25'0 0.0
2018-Feb-18 19:29N 34°01' W 119°25'0 0.0
2018-Feb-18 18:59N 34°01' W 119°25'0 0.2
2018-Feb-18 18:27N 34°01' W 119°25'1 0.3
2018-Feb-18 14:47N 34°00' W 119°25'2 7.6
2018-Feb-18 14:30N 33°58' W 119°24'4 8.0
2018-Feb-18 14:00N 33°55' W 119°21'4 8.8
2018-Feb-18 13:30N 33°51' W 119°19'5 9.1
2018-Feb-18 13:00N 33°47' W 119°16'5 9.8
2018-Feb-18 12:30N 33°43' W 119°13'5 9.8
2018-Feb-18 11:58N 33°39' W 119°09'5 9.5
2018-Feb-18 11:27N 33°35' W 119°06'7 0.7
2018-Feb-18 00:24N 33°28' W 119°03'1 3.3
2018-Feb-18 00:00N 33°29' W 119°03'1 0.8
2018-Feb-17 23:24N 33°29' W 119°03'0 0.0
2018-Feb-17 23:00N 33°29' W 119°03'0 0.6
2018-Feb-17 22:30N 33°29' W 119°03'1 1.4
2018-Feb-17 21:55N 33°28' W 119°03'3 0.5
2018-Feb-17 15:09N 33°31' W 119°03'2 8.7
2018-Feb-17 14:52N 33°34' W 119°04'3 8.5
2018-Feb-17 14:29N 33°37' W 119°06'4 8.7
2018-Feb-17 14:00N 33°41' W 119°07'5 8.6
2018-Feb-17 13:27N 33°45' W 119°09'4 8.8
2018-Feb-17 12:59N 33°49' W 119°10'4 9.0
2018-Feb-17 12:30N 33°53' W 119°12'6 9.1
2018-Feb-17 11:52N 33°59' W 119°13'3 9.4
2018-Feb-17 11:30N 34°02' W 119°14'6 9.3
2018-Feb-17 10:50N 34°08' W 119°16'4 9.5
2018-Feb-17 10:24N 34°12' W 119°17'2 2.0
2018-Feb-17 09:15N 34°15' W 119°16'0 0.0
2018-Feb-17 08:45N 34°15' W 119°16'0 0.0
2018-Feb-17 08:18N 34°15' W 119°16'0 0.0
2018-Feb-17 07:48N 34°15' W 119°16'0 0.0
2018-Feb-17 06:42N 34°15' W 119°16'0 0.0
2018-Feb-17 06:24N 34°15' W 119°16'0 0.0
2018-Feb-17 06:00N 34°15' W 119°16'0 0.0
2018-Feb-17 05:30N 34°15' W 119°16'0 0.0
2018-Feb-17 05:00N 34°15' W 119°16'0 0.0
2018-Feb-17 04:30N 34°15' W 119°16'0 0.0
2018-Feb-17 03:51N 34°15' W 119°16'0 0.0
2018-Feb-17 02:57N 34°15' W 119°16'0 0.0
2018-Feb-17 02:24N 34°15' W 119°16'0 0.0
2018-Feb-17 01:57N 34°15' W 119°16'0 0.0
2018-Feb-17 01:30N 34°15' W 119°16'0 0.0
2018-Feb-17 00:57N 34°15' W 119°16'0 0.0
2018-Feb-16 22:39N 34°15' W 119°16'0 0.0
2018-Feb-16 22:24N 34°15' W 119°16'0 0.0
2018-Feb-16 22:00N 34°15' W 119°16'0 0.0
2018-Feb-16 21:24N 34°15' W 119°16'0 0.4
2018-Feb-16 20:58N 34°14' W 119°16'0 0.0
2018-Feb-16 20:30N 34°14' W 119°16'0 0.2
2018-Feb-16 19:43N 34°15' W 119°16'0 0.0
2018-Feb-16 19:28N 34°15' W 119°16'0 0.0
2018-Feb-16 18:58N 34°15' W 119°16'0 0.0
2018-Feb-16 18:25N 34°15' W 119°16'0 0.0
2018-Feb-16 17:55N 34°15' W 119°16'0 0.0
2018-Feb-16 17:28N 34°15' W 119°16'0 0.0
2018-Feb-16 16:58N 34°15' W 119°16'0 0.0
2018-Feb-16 16:25N 34°15' W 119°16'0 0.0
2018-Feb-16 15:55N 34°15' W 119°16'0 0.0
2018-Feb-16 15:28N 34°15' W 119°16'0 0.0
2018-Feb-16 14:58N 34°15' W 119°16'0 0.0
2018-Feb-16 14:28N 34°15' W 119°16'0 0.0
2018-Feb-16 13:58N 34°15' W 119°16'0 0.0
2018-Feb-16 13:25N 34°15' W 119°16'0 0.0
2018-Feb-16 12:58N 34°15' W 119°16'0 0.0
2018-Feb-16 12:28N 34°15' W 119°16'0 0.0
2018-Feb-16 11:58N 34°15' W 119°16'0 0.0
2018-Feb-16 11:28N 34°15' W 119°16'0 0.0
2018-Feb-16 10:58N 34°15' W 119°16'0 0.0
2018-Feb-16 10:25N 34°15' W 119°16'0 0.0
2018-Feb-16 09:55N 34°15' W 119°16'0 0.0
2018-Feb-16 09:28N 34°15' W 119°16'0 0.0
2018-Feb-16 08:55N 34°15' W 119°16'0 0.0
2018-Feb-16 08:28N 34°15' W 119°16'0 0.0
2018-Feb-16 07:58N 34°15' W 119°16'0 0.0
2018-Feb-16 07:28N 34°15' W 119°16'0 0.0
2018-Feb-16 06:58N 34°15' W 119°16'0 0.0
2018-Feb-16 06:28N 34°15' W 119°16'0 0.0
2018-Feb-16 05:58N 34°15' W 119°16'0 0.0
2018-Feb-16 05:28N 34°15' W 119°16'0 0.0
2018-Feb-16 04:52N 34°15' W 119°16'0 0.0
2018-Feb-16 04:28N 34°15' W 119°16'0 0.0
2018-Feb-16 03:58N 34°15' W 119°16'0 0.0
2018-Feb-16 03:28N 34°15' W 119°16'0 0.0
2018-Feb-16 02:58N 34°15' W 119°16'0 0.0
2018-Feb-16 02:25N 34°15' W 119°16'0 0.0
2018-Feb-16 01:52N 34°15' W 119°16'0 0.0
2018-Feb-16 01:28N 34°15' W 119°16'0 0.0
2018-Feb-16 00:52N 34°15' W 119°16'0 0.0
2018-Feb-16 00:25N 34°15' W 119°16'0 0.0
2018-Feb-15 23:58N 34°15' W 119°16'0 0.0
2018-Feb-15 23:16N 34°15' W 119°16'0 0.0
2018-Feb-15 22:58N 34°15' W 119°16'0 0.0
2018-Feb-15 22:28N 34°15' W 119°16'0 0.0
2018-Feb-15 21:46N 34°15' W 119°16'0 0.0
2018-Feb-15 21:28N 34°15' W 119°16'0 0.0
2018-Feb-15 19:40N 34°15' W 119°16'0 0.0
2018-Feb-15 19:25N 34°15' W 119°16'0 0.0
2018-Feb-15 18:58N 34°15' W 119°16'0 0.0
2018-Feb-15 18:28N 34°15' W 119°16'0 0.0
2018-Feb-15 17:58N 34°15' W 119°16'0 0.0
2018-Feb-15 17:28N 34°15' W 119°16'0 0.0
2018-Feb-15 16:55N 34°15' W 119°16'0 0.0
2018-Feb-15 16:28N 34°15' W 119°16'0 0.0
2018-Feb-15 15:58N 34°15' W 119°16'0 0.0
2018-Feb-15 15:28N 34°15' W 119°16'0 0.0
2018-Feb-15 14:58N 34°15' W 119°16'0 0.0
2018-Feb-15 14:28N 34°15' W 119°16'0 0.0
2018-Feb-15 13:58N 34°15' W 119°16'0 0.0
2018-Feb-15 13:25N 34°15' W 119°16'0 0.0
2018-Feb-15 12:58N 34°15' W 119°16'0 0.0
2018-Feb-15 12:28N 34°15' W 119°16'0 0.0
2018-Feb-15 11:58N 34°15' W 119°16'0 0.0
2018-Feb-15 11:28N 34°15' W 119°16'0 0.0
2018-Feb-15 10:58N 34°15' W 119°16'0 0.0
2018-Feb-15 10:28N 34°15' W 119°16'0 0.0
2018-Feb-15 09:58N 34°15' W 119°16'0 0.0
2018-Feb-15 09:28N 34°15' W 119°16'0 0.0
2018-Feb-15 08:58N 34°15' W 119°16'0 0.0
2018-Feb-15 08:28N 34°15' W 119°16'  
Track history (hours):
 
Tides and Currents Weather Stations Pressure Air Temp Water Temp Dewpoint Dewpoint Depression Visibility Wind Speed Wind Dir Waves Ship Positions

Peace

Owner: BOWMAN, ERIC L, VENTURA, CA. More information available from US FCC via Universal Licensing System and Coast Guard Vessel Documentation Center.

Last reported at 2018-Feb-25 08:00 UTC. Time now 2018-Feb-25 08:13 UTC.
Position N 34°15' W 119°16'.

Length 20 m.

Type: Diving. MMSI: 367166830.

Date/timePositionNaut miles runAvg speedWind from/ knotsBaromVisibWave heightAir tempDewpointWater temp
2018-Feb-25 08:00N 34°15' W 119°16'0 0.0
2018-Feb-25 07:30N 34°15' W 119°16'0 0.0
2018-Feb-25 06:57N 34°15' W 119°16'0 0.0
2018-Feb-25 06:30N 34°15' W 119°16'0 0.0
2018-Feb-25 06:00N 34°15' W 119°16'0 0.0
2018-Feb-25 05:30N 34°15' W 119°16'0 0.0
2018-Feb-25 05:00N 34°15' W 119°16'0 0.0
2018-Feb-25 04:27N 34°15' W 119°16'0 0.0
2018-Feb-25 04:00N 34°15' W 119°16'0 0.0
2018-Feb-25 03:27N 34°15' W 119°16'0 0.0
2018-Feb-25 03:00N 34°15' W 119°16'0 0.0
2018-Feb-25 02:30N 34°15' W 119°16'0 0.0
2018-Feb-25 02:00N 34°15' W 119°16'1 1.1
2018-Feb-25 01:30N 34°15' W 119°17'5 9.1
2018-Feb-25 00:59N 34°12' W 119°21'6 9.3
2018-Feb-25 00:22N 34°07' W 119°26'6 9.4
2018-Feb-24 23:45N 34°03' W 119°30'2 0.2
2018-Feb-24 17:05N 34°02' W 119°31'1 9.4
2018-Feb-24 17:00N 34°02' W 119°30'5 9.2
2018-Feb-24 16:30N 34°06' W 119°27'5 9.2
2018-Feb-24 15:59N 34°09' W 119°23'5 9.5
2018-Feb-24 15:28N 34°13' W 119°19'3 6.0
2018-Feb-24 14:58N 34°15' W 119°16'0 0.0
2018-Feb-24 14:28N 34°15' W 119°16'0 0.0
2018-Feb-24 13:58N 34°15' W 119°16'0 0.0
2018-Feb-24 13:25N 34°15' W 119°16'0 0.0
2018-Feb-24 12:58N 34°15' W 119°16'0 0.0
2018-Feb-24 12:28N 34°15' W 119°16'0 0.0
2018-Feb-24 11:55N 34°15' W 119°16'0 0.0
2018-Feb-24 11:28N 34°15' W 119°16'0 0.0
2018-Feb-24 10:58N 34°15' W 119°16'0 0.0
2018-Feb-24 10:28N 34°15' W 119°16'0 0.0
2018-Feb-24 09:58N 34°15' W 119°16'0 0.0
2018-Feb-24 09:28N 34°15' W 119°16'0 0.0
2018-Feb-24 08:58N 34°15' W 119°16'0 0.0
2018-Feb-24 08:28N 34°15' W 119°16'0 0.0
2018-Feb-24 07:55N 34°15' W 119°16'0 0.0
2018-Feb-24 07:28N 34°15' W 119°16'0 0.0
2018-Feb-24 06:58N 34°15' W 119°16'0 0.0
2018-Feb-24 06:28N 34°15' W 119°16'0 0.0
2018-Feb-24 05:55N 34°15' W 119°16'0 0.0
2018-Feb-24 05:28N 34°15' W 119°16'0 0.0
2018-Feb-24 04:58N 34°15' W 119°16'0 0.0
2018-Feb-24 04:28N 34°15' W 119°16'0 0.0
2018-Feb-24 03:58N 34°15' W 119°16'0 0.0
2018-Feb-24 03:28N 34°15' W 119°16'0 0.0
2018-Feb-24 02:55N 34°15' W 119°16'0 0.0
2018-Feb-24 02:28N 34°15' W 119°16'0 0.0
2018-Feb-24 01:46N 34°15' W 119°16'0 0.0
2018-Feb-24 01:22N 34°15' W 119°16'0 0.0
2018-Feb-24 00:58N 34°15' W 119°16'0 0.0
2018-Feb-24 00:28N 34°15' W 119°16'0 0.0
2018-Feb-23 23:58N 34°15' W 119°16'0 0.0
2018-Feb-23 23:28N 34°15' W 119°16'0 0.0
2018-Feb-23 22:58N 34°15' W 119°16'0 0.0
2018-Feb-23 22:28N 34°15' W 119°16'0 0.0
2018-Feb-23 21:58N 34°15' W 119°16'0 0.0
2018-Feb-23 21:28N 34°15' W 119°16'0 0.0
2018-Feb-23 20:55N 34°15' W 119°16'0 0.0
2018-Feb-23 20:22N 34°15' W 119°16'0 0.0
2018-Feb-23 19:52N 34°15' W 119°16'0 0.0
2018-Feb-23 19:28N 34°15' W 119°16'0 0.0
2018-Feb-23 18:55N 34°15' W 119°16'0 0.0
2018-Feb-23 18:28N 34°15' W 119°16'0 0.0
2018-Feb-23 17:58N 34°15' W 119°16'0 0.0
2018-Feb-23 17:25N 34°15' W 119°16'0 0.0
2018-Feb-23 16:58N 34°15' W 119°16'0 0.0
2018-Feb-23 16:25N 34°15' W 119°16'0 0.0
2018-Feb-23 15:58N 34°15' W 119°16'0 0.0
2018-Feb-23 15:22N 34°15' W 119°16'0 0.0
2018-Feb-23 14:58N 34°15' W 119°16'0 0.0
2018-Feb-23 14:28N 34°15' W 119°16'0 0.0
2018-Feb-23 13:58N 34°15' W 119°16'0 0.0
2018-Feb-23 13:28N 34°15' W 119°16'0 0.0
2018-Feb-23 12:58N 34°15' W 119°16'0 0.0
2018-Feb-23 12:28N 34°15' W 119°16'0 0.0
2018-Feb-23 11:58N 34°15' W 119°16'0 0.0
2018-Feb-23 11:28N 34°15' W 119°16'0 0.0
2018-Feb-23 10:58N 34°15' W 119°16'0 0.0
2018-Feb-23 10:25N 34°15' W 119°16'0 0.0
2018-Feb-23 09:58N 34°15' W 119°16'0 0.0
2018-Feb-23 09:28N 34°15' W 119°16'0 0.0
2018-Feb-23 08:58N 34°15' W 119°16'0 0.0
2018-Feb-23 08:25N 34°15' W 119°16'0 0.0
2018-Feb-23 07:58N 34°15' W 119°16'0 0.0
2018-Feb-23 07:28N 34°15' W 119°16'0 0.0
2018-Feb-23 06:55N 34°15' W 119°16'0 0.0
2018-Feb-23 06:28N 34°15' W 119°16'0 0.0
2018-Feb-23 05:58N 34°15' W 119°16'0 0.0
2018-Feb-23 05:25N 34°15' W 119°16'0 0.0
2018-Feb-23 04:58N 34°15' W 119°16'0 0.0
2018-Feb-23 04:28N 34°15' W 119°16'0 0.0
2018-Feb-23 03:58N 34°15' W 119°16'0 0.0
2018-Feb-23 03:28N 34°15' W 119°16'0 0.0
2018-Feb-23 02:58N 34°15' W 119°16'0 0.0
2018-Feb-23 02:28N 34°15' W 119°16'0 0.0
2018-Feb-23 01:58N 34°15' W 119°16'0 0.0
2018-Feb-23 01:22N 34°15' W 119°16'0 0.0
2018-Feb-23 00:58N 34°15' W 119°16'0 0.0
2018-Feb-23 00:28N 34°15' W 119°16'0 0.0
2018-Feb-22 23:58N 34°15' W 119°16'0 0.0
2018-Feb-22 23:28N 34°15' W 119°16'0 0.0
2018-Feb-22 22:58N 34°15' W 119°16'0 0.0
2018-Feb-22 22:28N 34°15' W 119°16'0 0.0
2018-Feb-22 21:58N 34°15' W 119°16'0 0.0
2018-Feb-22 21:28N 34°15' W 119°16'0 0.0
2018-Feb-22 20:55N 34°15' W 119°16'0 0.0
2018-Feb-22 20:28N 34°15' W 119°16'0 0.0
2018-Feb-22 19:58N 34°15' W 119°16'0 0.0
2018-Feb-22 19:28N 34°15' W 119°16'0 0.0
2018-Feb-22 18:58N 34°15' W 119°16'0 0.0
2018-Feb-22 18:28N 34°15' W 119°16'0 0.0
2018-Feb-22 17:58N 34°15' W 119°16'0 0.0
2018-Feb-22 17:28N 34°15' W 119°16'0 0.0
2018-Feb-22 16:58N 34°15' W 119°16'0 0.0
2018-Feb-22 16:28N 34°15' W 119°16'0 0.0
2018-Feb-22 15:55N 34°15' W 119°16'0 0.0
2018-Feb-22 15:28N 34°15' W 119°16'0 0.0
2018-Feb-22 14:58N 34°15' W 119°16'0 0.0
2018-Feb-22 14:28N 34°15' W 119°16'0 0.0
2018-Feb-22 13:58N 34°15' W 119°16'0 0.0
2018-Feb-22 13:25N 34°15' W 119°16'0 0.0
2018-Feb-22 12:58N 34°15' W 119°16'0 0.0
2018-Feb-22 12:28N 34°15' W 119°16'0 0.0
2018-Feb-22 11:58N 34°15' W 119°16'0 0.0
2018-Feb-22 11:28N 34°15' W 119°16'0 0.0
2018-Feb-22 10:58N 34°15' W 119°16'0 0.0
2018-Feb-22 10:28N 34°15' W 119°16'0 0.0
2018-Feb-22 09:58N 34°15' W 119°16'0 0.0
2018-Feb-22 09:28N 34°15' W 119°16'0 0.0
2018-Feb-22 08:58N 34°15' W 119°16'0 0.0
2018-Feb-22 08:28N 34°15' W 119°16'0 0.0
2018-Feb-22 07:58N 34°15' W 119°16'0 0.0
2018-Feb-22 07:28N 34°15' W 119°16'0 0.0
2018-Feb-22 06:58N 34°15' W 119°16'0 0.0
2018-Feb-22 06:28N 34°15' W 119°16'0 0.0
2018-Feb-22 05:58N 34°15' W 119°16'0 0.0
2018-Feb-22 05:28N 34°15' W 119°16'0 0.0
2018-Feb-22 04:58N 34°15' W 119°16'0 0.0
2018-Feb-22 04:28N 34°15' W 119°16'0 0.0
2018-Feb-22 03:58N 34°15' W 119°16'0 0.0
2018-Feb-22 03:19N 34°15' W 119°16'0 0.0
2018-Feb-22 02:58N 34°15' W 119°16'0 0.0
2018-Feb-22 02:28N 34°15' W 119°16'0 0.0
2018-Feb-22 01:58N 34°15' W 119°16'0 0.0
2018-Feb-22 01:28N 34°15' W 119°16'0 0.0
2018-Feb-22 00:58N 34°15' W 119°16'0 0.0
2018-Feb-22 00:25N 34°15' W 119°16'0 0.0
2018-Feb-21 23:52N 34°15' W 119°16'0 0.0
2018-Feb-21 23:28N 34°15' W 119°16'0 0.0
2018-Feb-21 22:58N 34°15' W 119°16'0 0.0
2018-Feb-21 22:28N 34°15' W 119°16'0 0.0
2018-Feb-21 21:58N 34°15' W 119°16'0 0.0
2018-Feb-21 21:25N 34°15' W 119°16'0 0.0
2018-Feb-21 20:58N 34°15' W 119°16'0 0.0
2018-Feb-21 20:25N 34°15' W 119°16'0 0.0
2018-Feb-21 19:55N 34°15' W 119°16'0 0.0
2018-Feb-21 19:28N 34°15' W 119°16'0 0.0
2018-Feb-21 18:58N 34°15' W 119°16'0 0.0
2018-Feb-21 18:28N 34°15' W 119°16'0 0.0
2018-Feb-21 17:58N 34°15' W 119°16'0 0.0
2018-Feb-21 17:28N 34°15' W 119°16'0 0.0
2018-Feb-21 16:58N 34°15' W 119°16'0 0.0
2018-Feb-21 16:28N 34°15' W 119°16'0 0.0
2018-Feb-21 15:58N 34°15' W 119°16'0 0.0
2018-Feb-21 15:28N 34°15' W 119°16'0 0.0
2018-Feb-21 14:58N 34°15' W 119°16'0 0.0
2018-Feb-21 14:28N 34°15' W 119°16'0 0.0
2018-Feb-21 13:58N 34°15' W 119°16'0 0.0
2018-Feb-21 13:25N 34°15' W 119°16'0 0.0
2018-Feb-21 12:58N 34°15' W 119°16'0 0.0
2018-Feb-21 12:28N 34°15' W 119°16'0 0.0
2018-Feb-21 11:58N 34°15' W 119°16'0 0.0
2018-Feb-21 11:25N 34°15' W 119°16'0 0.0
2018-Feb-21 10:58N 34°15' W 119°16'0 0.0
2018-Feb-21 10:28N 34°15' W 119°16'0 0.0
2018-Feb-21 09:58N 34°15' W 119°16'0 0.0
2018-Feb-21 09:28N 34°15' W 119°16'0 0.0
2018-Feb-21 08:58N 34°15' W 119°16'0 0.0
2018-Feb-21 08:28N 34°15' W 119°16'0 0.0
2018-Feb-21 07:55N 34°15' W 119°16'0 0.0
2018-Feb-21 07:28N 34°15' W 119°16'0 0.0
2018-Feb-21 06:58N 34°15' W 119°16'0 0.0
2018-Feb-21 06:25N 34°15' W 119°16'0 0.0
2018-Feb-21 05:58N 34°15' W 119°16'0 0.0
2018-Feb-21 05:28N 34°15' W 119°16'0 0.0
2018-Feb-21 04:52N 34°15' W 119°16'0 0.0
2018-Feb-21 04:28N 34°15' W 119°16'0 0.0
2018-Feb-21 03:58N 34°15' W 119°16'0 0.0
2018-Feb-21 03:28N 34°15' W 119°16'0 0.0
2018-Feb-21 02:58N 34°15' W 119°16'0 0.0
2018-Feb-21 02:28N 34°15' W 119°16'0 0.0
2018-Feb-21 01:55N 34°15' W 119°16'0 0.0
2018-Feb-21 01:22N 34°15' W 119°16'0 0.0
2018-Feb-21 00:55N 34°15' W 119°16'0 0.0
2018-Feb-21 00:28N 34°15' W 119°16'0 0.0
2018-Feb-20 23:58N 34°15' W 119°16'0 0.0
2018-Feb-20 23:28N 34°15' W 119°16'0 0.0
2018-Feb-20 22:58N 34°15' W 119°16'0 0.0
2018-Feb-20 22:28N 34°15' W 119°16'0 0.0
2018-Feb-20 21:58N 34°15' W 119°16'0 0.0
2018-Feb-20 21:28N 34°15' W 119°16'0 0.0
2018-Feb-20 20:58N 34°15' W 119°16'0 0.0
2018-Feb-20 20:25N 34°15' W 119°16'0 0.0
2018-Feb-20 19:58N 34°15' W 119°16'0 0.0
2018-Feb-20 19:28N 34°15' W 119°16'0 0.0
2018-Feb-20 18:55N 34°15' W 119°16'0 0.0
2018-Feb-20 18:28N 34°15' W 119°16'0 0.0
2018-Feb-20 17:58N 34°15' W 119°16'0 0.0
2018-Feb-20 17:28N 34°15' W 119°16'0 0.0
2018-Feb-20 16:58N 34°15' W 119°16'0 0.0
2018-Feb-20 16:28N 34°15' W 119°16'0 0.0
2018-Feb-20 15:58N 34°15' W 119°16'0 0.0
2018-Feb-20 15:28N 34°15' W 119°16'0 0.0
2018-Feb-20 14:58N 34°15' W 119°16'0 0.0
2018-Feb-20 14:28N 34°15' W 119°16'0 0.0
2018-Feb-20 13:58N 34°15' W 119°16'0 0.0
2018-Feb-20 13:28N 34°15' W 119°16'0 0.0
2018-Feb-20 12:58N 34°15' W 119°16'0 0.0
2018-Feb-20 12:28N 34°15' W 119°16'0 0.0
2018-Feb-20 11:49N 34°15' W 119°16'0 0.0
2018-Feb-20 11:28N 34°15' W 119°16'0 0.0
2018-Feb-20 10:58N 34°15' W 119°16'0 0.0
2018-Feb-20 10:28N 34°15' W 119°16'0 0.0
2018-Feb-20 09:58N 34°15' W 119°16'0 0.0
2018-Feb-20 09:28N 34°15' W 119°16'0 0.0
2018-Feb-20 08:55N 34°15' W 119°16'0 0.0
2018-Feb-20 08:28N 34°15' W 119°16'0 0.0
2018-Feb-20 07:58N 34°15' W 119°16'0 0.0
2018-Feb-20 07:28N 34°15' W 119°16'0 0.0
2018-Feb-20 06:58N 34°15' W 119°16'0 0.0
2018-Feb-20 06:28N 34°15' W 119°16'0 0.0
2018-Feb-20 05:58N 34°15' W 119°16'0 0.0
2018-Feb-20 05:28N 34°15' W 119°16'0 0.0
2018-Feb-20 04:55N 34°15' W 119°16'0 0.0
2018-Feb-20 04:28N 34°15' W 119°16'0 0.0
2018-Feb-20 03:58N 34°15' W 119°16'0 0.0
2018-Feb-20 03:25N 34°15' W 119°16'0 0.0
2018-Feb-20 02:58N 34°15' W 119°16'0 0.0
2018-Feb-20 02:25N 34°15' W 119°16'0 0.0
2018-Feb-20 01:58N 34°15' W 119°16'0 0.0
2018-Feb-20 01:28N 34°15' W 119°16'0 0.0
2018-Feb-20 00:52N 34°15' W 119°16'0 0.0
2018-Feb-20 00:28N 34°15' W 119°16'0 0.0
2018-Feb-19 23:55N 34°15' W 119°16'0 0.0
2018-Feb-19 23:28N 34°15' W 119°16'0 0.2
2018-Feb-19 22:59N 34°15' W 119°16'4 8.0
2018-Feb-19 22:30N 34°13' W 119°20'5 9.4
2018-Feb-19 22:00N 34°10' W 119°24'6 9.5
2018-Feb-19 21:21N 34°05' W 119°29'3 9.3
2018-Feb-19 20:59N 34°02' W 119°31'3 0.1
2018-Feb-18 22:20N 33°60' W 119°31'3 8.5
2018-Feb-18 22:00N 34°00' W 119°28'1 2.3
2018-Feb-18 21:29N 34°00' W 119°26'0 0.0
2018-Feb-18 20:32N 34°00' W 119°26'0 1.2
2018-Feb-18 20:29N 34°00' W 119°26'1 1.3
2018-Feb-18 19:53N 34°01' W 119°25'0 0.0
2018-Feb-18 19:29N 34°01' W 119°25'0 0.0
2018-Feb-18 18:59N 34°01' W 119°25'0 0.2
2018-Feb-18 18:27N 34°01' W 119°25'1 0.3
2018-Feb-18 14:47N 34°00' W 119°25'2 7.6
2018-Feb-18 14:30N 33°58' W 119°24'4 8.0
2018-Feb-18 14:00N 33°55' W 119°21'4 8.8
2018-Feb-18 13:30N 33°51' W 119°19'5 9.1
2018-Feb-18 13:00N 33°47' W 119°16'5 9.8
2018-Feb-18 12:30N 33°43' W 119°13'5 9.8
2018-Feb-18 11:58N 33°39' W 119°09'5 9.5
2018-Feb-18 11:27N 33°35' W 119°06'7 0.7
2018-Feb-18 00:24N 33°28' W 119°03'1 3.3
2018-Feb-18 00:00N 33°29' W 119°03'1 0.8
2018-Feb-17 23:24N 33°29' W 119°03'0 0.0
2018-Feb-17 23:00N 33°29' W 119°03'0 0.6
2018-Feb-17 22:30N 33°29' W 119°03'1 1.4
2018-Feb-17 21:55N 33°28' W 119°03'3 0.5
2018-Feb-17 15:09N 33°31' W 119°03'2 8.7
2018-Feb-17 14:52N 33°34' W 119°04'3 8.5
2018-Feb-17 14:29N 33°37' W 119°06'4 8.7
2018-Feb-17 14:00N 33°41' W 119°07'5 8.6
2018-Feb-17 13:27N 33°45' W 119°09'4 8.8
2018-Feb-17 12:59N 33°49' W 119°10'4 9.0
2018-Feb-17 12:30N 33°53' W 119°12'6 9.1
2018-Feb-17 11:52N 33°59' W 119°13'3 9.4
2018-Feb-17 11:30N 34°02' W 119°14'6 9.3
2018-Feb-17 10:50N 34°08' W 119°16'4 9.5
2018-Feb-17 10:24N 34°12' W 119°17'2 2.0
2018-Feb-17 09:15N 34°15' W 119°16'0 0.0
2018-Feb-17 08:45N 34°15' W 119°16'0 0.0
2018-Feb-17 08:18N 34°15' W 119°16'0 0.0
2018-Feb-17 07:48N 34°15' W 119°16'0 0.0
2018-Feb-17 06:42N 34°15' W 119°16'0 0.0
2018-Feb-17 06:24N 34°15' W 119°16'0 0.0
2018-Feb-17 06:00N 34°15' W 119°16'0 0.0
2018-Feb-17 05:30N 34°15' W 119°16'0 0.0
2018-Feb-17 05:00N 34°15' W 119°16'0 0.0
2018-Feb-17 04:30N 34°15' W 119°16'0 0.0
2018-Feb-17 03:51N 34°15' W 119°16'0 0.0
2018-Feb-17 02:57N 34°15' W 119°16'0 0.0
2018-Feb-17 02:24N 34°15' W 119°16'0 0.0
2018-Feb-17 01:57N 34°15' W 119°16'0 0.0
2018-Feb-17 01:30N 34°15' W 119°16'0 0.0
2018-Feb-17 00:57N 34°15' W 119°16'0 0.0
2018-Feb-16 22:39N 34°15' W 119°16'0 0.0
2018-Feb-16 22:24N 34°15' W 119°16'0 0.0
2018-Feb-16 22:00N 34°15' W 119°16'0 0.0
2018-Feb-16 21:24N 34°15' W 119°16'0 0.4
2018-Feb-16 20:58N 34°14' W 119°16'0 0.0
2018-Feb-16 20:30N 34°14' W 119°16'0 0.2
2018-Feb-16 19:43N 34°15' W 119°16'0 0.0
2018-Feb-16 19:28N 34°15' W 119°16'0 0.0
2018-Feb-16 18:58N 34°15' W 119°16'0 0.0
2018-Feb-16 18:25N 34°15' W 119°16'0 0.0
2018-Feb-16 17:55N 34°15' W 119°16'0 0.0
2018-Feb-16 17:28N 34°15' W 119°16'0 0.0
2018-Feb-16 16:58N 34°15' W 119°16'0 0.0
2018-Feb-16 16:25N 34°15' W 119°16'0 0.0
2018-Feb-16 15:55N 34°15' W 119°16'0 0.0
2018-Feb-16 15:28N 34°15' W 119°16'0 0.0
2018-Feb-16 14:58N 34°15' W 119°16'0 0.0
2018-Feb-16 14:28N 34°15' W 119°16'0 0.0
2018-Feb-16 13:58N 34°15' W 119°16'0 0.0
2018-Feb-16 13:25N 34°15' W 119°16'0 0.0
2018-Feb-16 12:58N 34°15' W 119°16'0 0.0
2018-Feb-16 12:28N 34°15' W 119°16'0 0.0
2018-Feb-16 11:58N 34°15' W 119°16'0 0.0
2018-Feb-16 11:28N 34°15' W 119°16'0 0.0
2018-Feb-16 10:58N 34°15' W 119°16'0 0.0
2018-Feb-16 10:25N 34°15' W 119°16'0 0.0
2018-Feb-16 09:55N 34°15' W 119°16'0 0.0
2018-Feb-16 09:28N 34°15' W 119°16'0 0.0
2018-Feb-16 08:55N 34°15' W 119°16'0 0.0
2018-Feb-16 08:28N 34°15' W 119°16'0 0.0
2018-Feb-16 07:58N 34°15' W 119°16'0 0.0
2018-Feb-16 07:28N 34°15' W 119°16'0 0.0
2018-Feb-16 06:58N 34°15' W 119°16'0 0.0
2018-Feb-16 06:28N 34°15' W 119°16'0 0.0
2018-Feb-16 05:58N 34°15' W 119°16'0 0.0
2018-Feb-16 05:28N 34°15' W 119°16'0 0.0
2018-Feb-16 04:52N 34°15' W 119°16'0 0.0
2018-Feb-16 04:28N 34°15' W 119°16'0 0.0
2018-Feb-16 03:58N 34°15' W 119°16'0 0.0
2018-Feb-16 03:28N 34°15' W 119°16'0 0.0
2018-Feb-16 02:58N 34°15' W 119°16'0 0.0
2018-Feb-16 02:25N 34°15' W 119°16'0 0.0
2018-Feb-16 01:52N 34°15' W 119°16'0 0.0
2018-Feb-16 01:28N 34°15' W 119°16'0 0.0
2018-Feb-16 00:52N 34°15' W 119°16'0 0.0
2018-Feb-16 00:25N 34°15' W 119°16'0 0.0
2018-Feb-15 23:58N 34°15' W 119°16'0 0.0
2018-Feb-15 23:16N 34°15' W 119°16'0 0.0
2018-Feb-15 22:58N 34°15' W 119°16'0 0.0
2018-Feb-15 22:28N 34°15' W 119°16'0 0.0
2018-Feb-15 21:46N 34°15' W 119°16'0 0.0
2018-Feb-15 21:28N 34°15' W 119°16'0 0.0
2018-Feb-15 19:40N 34°15' W 119°16'0 0.0
2018-Feb-15 19:25N 34°15' W 119°16'0 0.0
2018-Feb-15 18:58N 34°15' W 119°16'0 0.0
2018-Feb-15 18:28N 34°15' W 119°16'0 0.0
2018-Feb-15 17:58N 34°15' W 119°16'0 0.0
2018-Feb-15 17:28N 34°15' W 119°16'0 0.0
2018-Feb-15 16:55N 34°15' W 119°16'0 0.0
2018-Feb-15 16:28N 34°15' W 119°16'0 0.0
2018-Feb-15 15:58N 34°15' W 119°16'0 0.0
2018-Feb-15 15:28N 34°15' W 119°16'0 0.0
2018-Feb-15 14:58N 34°15' W 119°16'0 0.0
2018-Feb-15 14:28N 34°15' W 119°16'0 0.0
2018-Feb-15 13:58N 34°15' W 119°16'0 0.0
2018-Feb-15 13:25N 34°15' W 119°16'0 0.0
2018-Feb-15 12:58N 34°15' W 119°16'0 0.0
2018-Feb-15 12:28N 34°15' W 119°16'0 0.0
2018-Feb-15 11:58N 34°15' W 119°16'0 0.0
2018-Feb-15 11:28N 34°15' W 119°16'0 0.0
2018-Feb-15 10:58N 34°15' W 119°16'0 0.0
2018-Feb-15 10:28N 34°15' W 119°16'0 0.0
2018-Feb-15 09:58N 34°15' W 119°16'0 0.0
2018-Feb-15 09:28N 34°15' W 119°16'0 0.0
2018-Feb-15 08:58N 34°15' W 119°16'0 0.0
2018-Feb-15 08:28N 34°15' W 119°16'  

Dump ship's entire track history